createdAt,value
2023-05-10T03:28:56.285Z,96931.00
2023-05-10T03:31:22.858Z,96932.72
2023-05-10T03:33:49.358Z,96930.69
2023-05-10T03:36:15.799Z,96930.81
2023-05-10T03:38:42.310Z,96925.78
2023-05-10T03:41:08.774Z,96927.03
2023-05-10T03:43:35.230Z,96929.91
2023-05-10T03:46:01.671Z,96930.38
2023-05-10T03:48:28.077Z,96931.94
2023-05-10T03:50:55.287Z,96939.84
2023-05-10T03:53:21.883Z,96938.41
2023-05-10T03:55:48.387Z,96942.66
2023-05-10T03:58:14.830Z,96937.94
2023-05-10T04:00:41.329Z,96945.50
2023-05-10T04:03:07.981Z,96943.31
2023-05-10T04:05:34.563Z,96940.69
2023-05-10T04:08:01.025Z,96940.09
2023-05-10T04:10:27.513Z,96946.75
2023-05-10T04:12:53.938Z,96944.66
2023-05-10T04:15:20.400Z,96942.94
2023-05-10T04:17:46.958Z,96949.88
2023-05-10T04:20:13.464Z,96945.31
2023-05-10T04:22:39.991Z,96950.34
2023-05-10T04:25:06.483Z,96948.47
2023-05-10T04:27:33.022Z,96946.59
2023-05-10T04:29:59.510Z,96939.19
2023-05-10T04:32:26.044Z,96935.84
2023-05-10T04:34:52.501Z,96941.50
2023-05-10T04:37:19.074Z,96933.31
2023-05-10T04:39:45.560Z,96935.38
2023-05-10T04:42:12.002Z,96925.28
2023-05-10T04:44:38.434Z,96924.78
2023-05-10T04:47:04.902Z,96920.69
2023-05-10T04:49:31.399Z,96921.16
2023-05-10T04:51:58.114Z,96923.38
2023-05-10T04:54:24.590Z,96927.00
2023-05-10T04:56:51.080Z,96926.50
2023-05-10T04:59:17.701Z,96928.06
2023-05-10T05:01:44.286Z,96932.78
2023-05-10T05:04:10.845Z,96930.91
2023-05-10T05:06:37.344Z,96930.69
2023-05-10T05:09:03.828Z,96930.56
2023-05-10T05:11:30.358Z,96934.69
2023-05-10T05:13:56.790Z,96939.25
2023-05-10T05:16:23.272Z,96938.47
2023-05-10T05:18:49.876Z,96937.06
2023-05-10T05:21:16.315Z,96942.75
2023-05-10T05:23:42.822Z,96943.25
2023-05-10T05:26:09.309Z,96944.81
2023-05-10T05:28:35.708Z,96943.72
2023-05-10T05:31:02.243Z,96944.00
2023-05-10T05:33:28.746Z,96951.09
2023-05-10T05:35:55.172Z,96950.31
2023-05-10T05:38:21.713Z,96942.75
2023-05-10T05:40:48.344Z,96947.78
2023-05-10T05:43:14.779Z,96954.25
2023-05-10T05:45:41.254Z,96960.63
2023-05-10T05:48:07.757Z,96956.53
2023-05-10T05:50:34.349Z,96964.56
2023-05-10T05:53:00.846Z,96963.09
2023-05-10T05:55:27.269Z,96961.53
2023-05-10T05:57:53.739Z,96960.56
2023-05-10T06:00:20.179Z,96958.19
2023-05-10T06:02:46.761Z,96951.41
2023-05-10T06:05:13.313Z,96958.50
2023-05-10T06:07:39.803Z,96953.28
2023-05-10T06:10:06.275Z,96962.56
2023-05-10T06:12:32.753Z,96959.09
2023-05-10T06:14:59.213Z,96955.03
2023-05-10T06:17:25.929Z,96960.38
2023-05-10T06:19:52.500Z,96952.66
2023-05-10T06:22:18.916Z,96956.28
2023-05-10T06:24:45.517Z,96952.66
2023-05-10T06:27:12.114Z,96959.88
2023-05-10T06:29:38.612Z,96955.03
2023-05-10T06:32:05.074Z,96967.66
2023-05-10T06:34:31.586Z,96960.22
2023-05-10T06:36:58.191Z,96963.41
2023-05-10T06:39:24.709Z,96964.00
2023-05-10T06:41:51.254Z,96965.56
2023-05-10T06:44:17.749Z,96967.00
2023-05-10T06:46:44.412Z,96964.03
2023-05-10T06:49:11.100Z,96964.00
2023-05-10T06:51:37.651Z,96972.50
2023-05-10T06:54:04.136Z,96970.94
2023-05-10T06:56:30.594Z,96975.28
2023-05-10T06:58:57.106Z,96974.66
2023-05-10T07:01:23.690Z,96967.69
2023-05-10T07:03:50.357Z,96976.81
2023-05-10T07:06:29.400Z,96968.13
2023-05-10T07:08:59.617Z,96972.28
2023-05-10T07:11:26.071Z,96965.97
2023-05-10T07:13:52.937Z,96969.78
2023-05-10T07:16:19.401Z,96986.00
2023-05-10T07:18:45.915Z,96979.06
2023-05-10T07:21:12.511Z,96988.22
2023-05-10T07:23:39.005Z,96978.94
2023-05-10T07:26:05.464Z,96983.97
2023-05-10T07:28:31.882Z,96983.50
2023-05-10T07:30:58.418Z,96986.97
2023-05-10T07:33:24.990Z,96990.44
2023-05-10T07:35:51.775Z,96986.34
2023-05-10T07:38:18.306Z,96991.06
2023-05-10T07:40:44.853Z,96988.84
2023-05-10T07:43:11.385Z,96995.94
2023-05-10T07:45:37.917Z,97000.53
2023-05-10T07:48:04.408Z,96995.81
2023-05-10T07:50:30.885Z,97005.28
2023-05-10T07:52:57.398Z,97002.50
2023-05-10T07:55:24.003Z,97006.75
2023-05-10T07:57:50.484Z,97003.31
2023-05-10T08:00:17.129Z,97002.09
2023-05-10T08:02:43.730Z,97000.78
2023-05-10T08:05:10.301Z,96992.25
2023-05-10T08:07:36.864Z,96992.41
2023-05-10T08:10:03.387Z,96995.25
2023-05-10T08:12:29.939Z,96991.16
2023-05-10T08:14:56.385Z,96992.19
2023-05-10T08:17:24.693Z,96994.38
2023-05-10T08:19:51.453Z,96991.56
2023-05-10T08:22:17.868Z,96999.81
2023-05-10T08:24:44.347Z,96995.56
2023-05-10T08:27:10.820Z,96992.06
2023-05-10T08:29:49.052Z,96997.72
2023-05-10T08:32:16.649Z,96992.63
2023-05-10T08:34:43.116Z,96998.81
2023-05-10T08:37:09.683Z,97000.97
2023-05-10T08:39:36.213Z,96989.94
2023-05-10T08:42:03.098Z,96990.09
2023-05-10T08:44:29.579Z,97000.97
2023-05-10T08:46:56.208Z,97000.66
2023-05-10T08:49:22.738Z,97006.63
2023-05-10T08:51:49.358Z,97012.69
2023-05-10T08:54:15.824Z,97014.94
2023-05-10T08:56:42.362Z,97018.41
2023-05-10T08:59:08.914Z,97019.00
2023-05-10T09:01:35.382Z,97018.53
2023-05-10T09:04:01.929Z,97022.19
2023-05-10T09:06:28.574Z,97022.34
2023-05-10T09:08:55.040Z,97023.44
2023-05-10T09:11:21.493Z,97025.16
2023-05-10T09:13:47.966Z,97022.34
2023-05-10T09:18:46.702Z,97016.63
2023-05-10T09:21:13.146Z,97017.19
2023-05-10T09:23:39.567Z,97016.53
2023-05-10T09:26:06.070Z,97024.44
2023-05-10T09:28:32.603Z,97033.34
2023-05-10T09:30:59.127Z,97030.97
2023-05-10T09:33:25.613Z,97025.75
2023-05-10T09:35:52.100Z,97027.19
2023-05-10T09:38:18.610Z,97024.34
2023-05-10T09:40:45.089Z,97022.59
2023-05-10T09:43:11.613Z,97024.66
2023-05-10T09:45:39.111Z,97022.59
2023-05-10T09:48:06.051Z,97026.06
2023-05-10T09:50:32.604Z,97022.88
2023-05-10T09:52:59.034Z,97019.88
2023-05-10T09:55:25.457Z,97023.38
2023-05-10T09:57:51.955Z,97021.19
2023-05-10T10:00:18.390Z,97017.81
2023-05-10T10:02:44.884Z,97022.06
2023-05-10T10:05:11.667Z,97022.69
2023-05-10T10:07:38.404Z,97016.69
2023-05-10T10:10:04.821Z,97013.53
2023-05-10T10:12:31.471Z,97015.75
2023-05-10T10:14:57.965Z,97019.03
2023-05-10T10:17:24.484Z,97009.06
2023-05-10T10:19:51.067Z,97015.06
2023-05-10T10:22:17.637Z,97013.94
2023-05-10T10:24:44.090Z,97004.19
2023-05-10T10:27:10.590Z,97006.06
2023-05-10T10:29:37.029Z,97005.16
2023-05-10T10:32:03.555Z,97005.75
2023-05-10T10:34:30.079Z,97001.19
2023-05-10T10:36:56.508Z,97010.34
2023-05-10T10:39:23.034Z,97010.78
2023-05-10T10:41:49.552Z,97010.97
2023-05-10T10:44:16.052Z,97016.34
2023-05-10T10:46:42.644Z,97012.38
2023-05-10T10:49:09.219Z,97009.88
2023-05-10T10:51:35.753Z,97013.22
2023-05-10T10:54:02.224Z,97011.66
2023-05-10T10:56:28.741Z,97003.38
2023-05-10T10:58:55.236Z,97004.19
2023-05-10T11:01:21.790Z,97009.84
2023-05-10T11:03:48.274Z,96994.38
2023-05-10T11:06:14.759Z,96997.84
2023-05-10T11:08:41.244Z,97000.84
2023-05-10T11:11:07.898Z,96993.59
2023-05-10T11:13:34.388Z,96992.34
2023-05-10T11:16:00.840Z,96996.75
2023-05-10T11:18:27.327Z,96994.88
2023-05-10T11:20:53.894Z,96991.41
2023-05-10T11:23:20.358Z,96990.44
2023-05-10T11:25:46.820Z,96992.81
2023-05-10T11:28:13.377Z,96984.63
2023-05-10T11:30:41.298Z,96989.66
2023-05-10T11:33:07.878Z,96986.16
2023-05-10T11:35:34.322Z,96992.91
2023-05-10T11:38:00.825Z,96992.44
2023-05-10T11:40:27.281Z,96995.22
2023-05-10T11:42:53.821Z,96997.84
2023-05-10T11:45:20.223Z,96984.06
2023-05-10T11:47:46.755Z,97002.38
2023-05-10T11:50:13.310Z,97001.13
2023-05-10T11:52:39.918Z,96999.72
2023-05-10T11:55:06.513Z,96993.94
2023-05-10T11:57:33.069Z,96996.06
2023-05-10T11:59:59.522Z,96997.38
2023-05-10T12:02:26.075Z,96995.22
2023-05-10T12:04:52.730Z,96995.75
2023-05-10T12:07:19.232Z,96993.00
2023-05-10T12:09:45.671Z,96992.19
2023-05-10T12:12:12.173Z,96996.31
2023-05-10T12:14:38.595Z,96990.63
2023-05-10T12:17:04.986Z,96987.41
2023-05-10T12:19:31.395Z,96997.03
2023-05-10T12:21:57.794Z,97002.25
2023-05-10T12:24:24.298Z,96999.53
2023-05-10T12:29:34.746Z,96996.75
2023-05-10T12:32:01.373Z,97000.22
2023-05-10T12:34:27.827Z,96999.88
2023-05-10T12:36:54.242Z,97002.09
2023-05-10T12:39:20.662Z,96997.72
2023-05-10T12:41:47.070Z,96998.50
2023-05-10T12:44:13.521Z,97005.13
2023-05-10T12:46:42.918Z,96998.66
2023-05-10T12:49:09.866Z,97010.75
2023-05-10T12:51:36.672Z,97005.63
2023-05-10T12:54:03.137Z,97001.66
2023-05-10T12:56:29.861Z,97008.06
2023-05-10T12:58:56.348Z,97004.44
2023-05-10T13:01:25.578Z,96995.50
2023-05-10T13:03:52.079Z,97003.22
2023-05-10T13:06:18.568Z,97012.06
2023-05-10T13:08:44.989Z,97006.94
2023-05-10T13:11:11.428Z,97010.63
2023-05-10T13:13:37.879Z,97014.16
2023-05-10T13:16:04.339Z,97006.84
2023-05-10T13:18:30.807Z,97003.50
2023-05-10T13:20:57.380Z,97009.84
2023-05-10T13:23:23.833Z,96995.81
2023-05-10T13:25:50.290Z,97001.91
2023-05-10T13:28:16.706Z,97002.81
2023-05-10T13:30:43.136Z,97011.28
2023-05-10T13:33:09.644Z,97007.03
2023-05-10T13:35:36.141Z,97009.09
2023-05-10T13:38:02.628Z,97002.78
2023-05-10T13:40:29.262Z,97011.19
2023-05-10T13:42:55.695Z,97010.63
2023-05-10T13:45:22.163Z,97012.22
2023-05-10T13:47:48.670Z,97009.22
2023-05-10T13:50:15.119Z,97008.63
2023-05-10T13:52:41.533Z,97012.47
2023-05-10T13:55:07.976Z,97010.59
2023-05-10T13:57:34.508Z,97001.59
2023-05-10T14:00:00.949Z,97006.63
2023-05-10T14:02:27.408Z,97005.66
2023-05-10T14:04:53.858Z,97001.06
2023-05-10T14:07:20.279Z,97008.69
2023-05-10T14:09:46.742Z,97001.06
2023-05-10T14:12:13.164Z,97002.22
2023-05-10T14:14:39.747Z,96993.72
2023-05-10T14:17:06.324Z,96996.34
2023-05-10T14:19:32.778Z,96996.81
2023-05-10T14:21:59.547Z,96996.34
2023-05-10T14:24:25.973Z,96994.56
2023-05-10T14:26:52.394Z,97001.97
2023-05-10T14:29:18.904Z,96996.03
2023-05-10T14:31:45.449Z,96990.53
2023-05-10T14:34:11.922Z,96992.28
2023-05-10T14:36:38.631Z,96994.56
2023-05-10T14:39:05.161Z,96992.78
2023-05-10T14:41:31.656Z,96995.03
2023-05-10T14:43:58.143Z,96989.97
2023-05-10T14:46:24.649Z,96990.44
2023-05-10T14:48:51.175Z,96989.53
2023-05-10T14:51:17.627Z,96997.91
2023-05-10T14:53:44.075Z,96995.56
2023-05-10T14:56:10.532Z,96995.25
2023-05-10T14:58:36.979Z,96994.25
2023-05-10T15:01:03.498Z,96992.09
2023-05-10T15:03:30.468Z,96995.56
2023-05-10T15:05:57.431Z,97000.69
2023-05-10T15:08:23.880Z,97001.00
2023-05-10T15:10:50.349Z,96995.25
2023-05-10T15:13:16.792Z,96999.00
2023-05-10T15:15:43.178Z,97005.75
2023-05-10T15:18:09.634Z,96997.91
2023-05-10T15:20:36.167Z,96998.16
2023-05-10T15:23:02.601Z,96996.38
2023-05-10T15:25:29.049Z,96992.47
2023-05-10T15:27:55.485Z,96996.53
2023-05-10T15:30:22.053Z,96998.47
2023-05-10T15:32:51.428Z,97006.66
2023-05-10T15:35:20.761Z,96994.38
2023-05-10T15:37:47.328Z,97004.66
2023-05-10T15:40:13.800Z,96995.34
2023-05-10T15:42:40.175Z,97011.72
2023-05-10T15:45:06.706Z,97013.00
2023-05-10T15:47:36.005Z,97010.31
2023-05-10T15:50:02.893Z,97010.81
2023-05-10T15:52:29.374Z,97013.38
2023-05-10T15:54:55.882Z,97011.22
2023-05-10T15:57:22.438Z,96977.28
2023-05-10T15:59:48.871Z,96971.44
2023-05-10T16:02:15.760Z,96967.63
2023-05-10T16:04:42.339Z,96971.09
2023-05-10T16:07:08.891Z,96974.66
2023-05-10T16:09:35.342Z,97017.94
2023-05-10T16:12:01.782Z,97022.34
2023-05-10T16:14:28.214Z,97022.63
2023-05-10T16:16:54.778Z,97014.06
2023-05-10T16:19:21.436Z,97025.72
2023-05-10T16:21:47.952Z,97022.69
2023-05-10T16:24:14.463Z,97026.84
2023-05-10T16:26:41.172Z,97031.19
2023-05-10T16:29:07.766Z,97024.94
2023-05-10T16:31:34.279Z,97024.47
2023-05-10T16:34:00.754Z,97034.41
2023-05-10T16:36:27.520Z,97027.47
2023-05-10T16:38:54.030Z,97023.78
2023-05-10T16:41:20.536Z,97032.00
2023-05-10T16:43:47.204Z,97033.81
2023-05-10T16:46:13.715Z,97027.19
2023-05-10T16:48:40.199Z,97031.63
2023-05-10T16:51:06.708Z,97038.72
2023-05-10T16:53:35.981Z,97028.94
2023-05-10T16:56:02.428Z,97022.47
2023-05-10T16:58:28.909Z,97027.81
2023-05-10T17:00:55.414Z,97022.47
2023-05-10T17:03:22.151Z,97021.03
2023-05-10T17:05:48.732Z,97029.88
2023-05-10T17:08:15.245Z,97027.38
2023-05-10T17:10:41.733Z,97024.84
2023-05-10T17:13:10.224Z,97029.09
2023-05-10T17:15:37.095Z,97028.13
2023-05-10T17:18:03.706Z,97025.91
2023-05-10T17:20:30.334Z,97025.25
2023-05-10T17:22:56.823Z,97022.03
2023-05-10T17:25:23.401Z,97014.94
2023-05-10T17:27:50.020Z,97016.66
2023-05-10T17:30:16.492Z,97022.34
2023-05-10T17:32:43.126Z,97012.63
2023-05-10T17:35:09.601Z,97013.69
2023-05-10T17:37:36.122Z,97006.22
2023-05-10T17:40:02.599Z,97016.50
2023-05-10T17:42:29.136Z,97011.50
2023-05-10T17:44:55.618Z,97009.50
2023-05-10T17:47:22.118Z,97011.28
2023-05-10T17:49:48.598Z,97007.25
2023-05-10T17:52:15.145Z,97015.81
2023-05-10T17:54:41.718Z,97011.41
2023-05-10T17:57:08.241Z,97016.78
2023-05-10T17:59:34.743Z,97011.44
2023-05-10T18:02:01.401Z,97015.47
2023-05-10T18:04:27.976Z,97024.72
2023-05-10T18:06:57.303Z,97022.91
2023-05-10T18:09:23.836Z,97022.56
2023-05-10T18:11:50.330Z,97022.28
2023-05-10T18:14:28.295Z,97023.03
2023-05-10T18:17:03.007Z,97027.94
2023-05-10T18:19:29.641Z,97019.44
2023-05-10T18:21:56.197Z,97022.59
2023-05-10T18:24:34.345Z,97028.13
2023-05-10T18:27:04.675Z,97025.91
2023-05-10T18:29:31.421Z,97030.00
2023-05-10T18:32:00.957Z,97033.50
2023-05-10T18:34:27.437Z,97030.50
2023-05-10T18:36:53.986Z,97036.81
2023-05-10T18:39:20.602Z,97037.91
2023-05-10T18:41:47.109Z,97045.03
2023-05-10T18:44:13.638Z,97038.59
2023-05-10T18:46:40.314Z,97049.47
2023-05-10T18:49:07.140Z,96998.28
2023-05-10T18:51:33.730Z,97006.38
2023-05-10T18:54:00.297Z,97000.44
2023-05-10T18:56:26.730Z,97006.97
2023-05-10T18:58:53.214Z,97002.41
2023-05-10T19:01:19.698Z,97010.94
2023-05-10T19:03:46.300Z,97006.78
2023-05-10T19:06:12.871Z,97015.03
2023-05-10T19:08:39.496Z,97009.03
2023-05-10T19:11:06.010Z,97005.59
2023-05-10T19:13:32.495Z,97018.19
2023-05-10T19:15:58.956Z,97020.38
2023-05-10T19:18:27.011Z,97056.19
2023-05-10T19:20:54.001Z,97051.88
2023-05-10T19:23:20.870Z,97053.47
2023-05-10T19:25:47.445Z,97055.03
2023-05-10T19:28:14.031Z,97061.81
2023-05-10T19:30:40.584Z,97065.75
2023-05-10T19:33:07.134Z,97062.13
2023-05-10T19:35:33.713Z,97063.88
2023-05-10T19:38:00.230Z,97064.81
2023-05-10T19:40:26.657Z,97061.81
2023-05-10T19:42:53.208Z,97072.53
2023-05-10T19:45:19.933Z,97071.13
2023-05-10T19:47:46.674Z,97064.81
2023-05-10T19:50:13.287Z,97062.44
2023-05-10T19:52:39.946Z,97064.34
2023-05-10T19:55:06.448Z,97060.22
2023-05-10T19:57:32.901Z,97057.25
2023-05-10T19:59:59.352Z,97067.34
2023-05-10T20:02:25.913Z,97059.63
2023-05-10T20:04:52.415Z,97063.22
2023-05-10T20:07:18.939Z,97074.75
2023-05-10T20:09:45.404Z,97068.13
2023-05-10T20:12:11.952Z,97065.00
2023-05-10T20:14:38.456Z,97060.22
2023-05-10T20:17:05.074Z,97065.75
2023-05-10T20:19:31.599Z,97072.84
2023-05-10T20:21:58.174Z,97068.91
2023-05-10T20:24:24.787Z,97073.03
2023-05-10T20:26:51.299Z,97070.50
2023-05-10T20:29:17.832Z,97071.28
2023-05-10T20:31:44.397Z,97070.03
2023-05-10T20:34:10.941Z,97075.72
2023-05-10T20:36:37.424Z,97075.72
2023-05-10T20:39:03.911Z,97083.13
2023-05-10T20:41:30.434Z,97082.47
2023-05-10T20:43:56.936Z,97082.81
2023-05-10T20:46:23.610Z,97084.69
2023-05-10T20:48:50.179Z,97081.69
2023-05-10T20:51:16.837Z,97080.75
2023-05-10T20:53:43.341Z,97079.78
2023-05-10T20:56:09.818Z,97085.03
2023-05-10T20:58:36.401Z,97075.41
2023-05-10T21:01:02.985Z,97076.97
2023-05-10T21:03:29.585Z,97086.59
2023-05-10T21:05:56.152Z,97079.81
2023-05-10T21:08:22.693Z,97075.88
2023-05-10T21:10:49.180Z,97089.44
2023-05-10T21:13:15.782Z,97084.38
2023-05-10T21:15:42.291Z,97084.25
2023-05-10T21:18:08.920Z,97084.38
2023-05-10T21:20:35.485Z,97093.88
2023-05-10T21:23:02.013Z,97088.81
2023-05-10T21:25:28.653Z,97094.97
2023-05-10T21:27:55.560Z,97088.81
2023-05-10T21:30:22.057Z,97086.13
2023-05-10T21:32:48.726Z,97085.66
2023-05-10T21:35:15.322Z,97083.59
2023-05-10T21:37:41.846Z,97083.91
2023-05-10T21:40:08.347Z,97075.88
2023-05-10T21:42:34.832Z,97070.81
2023-05-10T21:45:01.274Z,97076.19
2023-05-10T21:47:27.741Z,97078.41
2023-05-10T21:49:54.360Z,97069.72
2023-05-10T21:52:20.837Z,97071.75
2023-05-10T21:54:47.416Z,97070.50
2023-05-10T21:57:13.952Z,97062.47
2023-05-10T21:59:40.484Z,97070.50
2023-05-10T22:02:07.058Z,97068.78
2023-05-10T22:04:33.641Z,97067.50
2023-05-10T22:07:00.054Z,97065.47
2023-05-10T22:09:26.574Z,97067.50
2023-05-10T22:11:53.061Z,97067.19
2023-05-10T22:14:19.511Z,97063.41
2023-05-10T22:16:46.127Z,97059.13
2023-05-10T22:19:12.712Z,97065.47
2023-05-10T22:21:39.279Z,97060.25
2023-05-10T22:24:05.801Z,97054.41
2023-05-10T22:26:32.332Z,97058.81
2023-05-10T22:28:58.844Z,97058.34
2023-05-10T22:31:25.346Z,97067.66
2023-05-10T22:33:51.903Z,97062.91
2023-05-10T22:36:18.428Z,97065.31
2023-05-10T22:38:44.936Z,97061.34
2023-05-10T22:41:11.425Z,97065.47
2023-05-10T22:43:37.964Z,97059.28
2023-05-10T22:46:04.424Z,97059.13
2023-05-10T22:48:30.907Z,97072.25
2023-05-10T22:50:57.444Z,97068.16
2023-05-10T22:53:23.986Z,97061.81
2023-05-10T22:55:50.516Z,97060.41
2023-05-10T22:58:17.020Z,97072.56
